Perris, California
Current Conditions -  °F | °C
As of 10:58 AM on Sunday 23 Nov 2014 (Local Time) from KRIV Reporting Station
Clear Clear  
Wind Chill: 71°   Ceiling: Unl
Heat Index: 71°   Visibility: 10mi
Dew Point: 20°   Wind: 5mph
Humidity: 15%   Direction: 50°NE
Pressure: 30.13"   Gusts: NA
Location:  33.78°N, 117.22°W
Report Text: KRIV 231858Z AUTO 05004KT 10SM CLR 22/M07 A3013 RMK AO2 SLP197 T02161066
Loading
Personal Weather Stations






























Interactive Weather Map New forecast layout! Learn more

10-Day Weather Forecast

Advertisements
Track Severe Weather on mobile